Time;durP1;ratioP1;P1;durP2;ratioP2;P2;SDS_P1;SDS_P2;PMS_P1;PMS_P2;Temp;Humidity;BMP_temperature;BMP_pressure;BME280_temperature;BME280_humidity;BME280_pressure;Samples;Min_cycle;Max_cycle;Signal;HPM_P1;HPM_P2
2022/06/04 00:00:36;;;;;;;6.80;4.60;;;26.70;95.00;;;;;;5049852;28;20056;-74
2022/06/04 00:03:05;;;;;;;9.02;4.65;;;26.70;95.00;;;;;;5049711;28;20051;-74
2022/06/04 00:05:35;;;;;;;7.45;5.00;;;26.70;95.00;;;;;;5016633;28;20143;-76
2022/06/04 00:08:04;;;;;;;9.77;4.50;;;26.60;94.80;;;;;;5016282;28;20076;-75
2022/06/04 00:16:11;;;;;;;9.48;5.03;;;26.50;94.30;;;;;;5032838;28;20568;-76
2022/06/04 00:18:40;;;;;;;8.45;4.22;;;26.50;94.10;;;;;;5033737;28;20057;-76
2022/06/04 00:21:09;;;;;;;7.25;4.35;;;26.50;94.10;;;;;;5016957;28;20048;-75
2022/06/04 00:23:37;;;;;;;9.52;4.22;;;26.50;94.20;;;;;;5016850;28;20418;-78
2022/06/04 00:26:07;;;;;;;6.15;4.25;;;26.50;94.30;;;;;;5050500;28;20164;-77
2022/06/04 00:28:36;;;;;;;8.82;4.60;;;26.40;94.30;;;;;;5033073;28;20102;-76
2022/06/04 00:31:04;;;;;;;11.32;5.07;;;26.40;94.40;;;;;;5033488;28;20399;-76
2022/06/04 00:33:32;;;;;;;7.10;4.93;;;26.40;94.40;;;;;;5032863;28;20487;-76
2022/06/04 00:36:00;;;;;;;9.60;5.78;;;26.40;94.40;;;;;;5032902;28;20072;-76
2022/06/04 00:38:30;;;;;;;8.32;5.22;;;26.40;94.30;;;;;;5032376;28;20072;-77
2022/06/04 00:41:20;;;;;;;9.93;5.70;;;26.40;94.50;;;;;;5016906;28;20048;-77
2022/06/04 00:44:05;;;;;;;8.32;5.75;;;26.40;94.60;;;;;;5049574;28;20045;-77
2022/06/04 00:46:42;;;;;;;14.55;5.55;;;26.40;94.50;;;;;;5049463;28;20045;-77
2022/06/04 00:49:12;;;;;;;9.00;5.47;;;26.40;94.60;;;;;;5040568;28;20715;-76
2022/06/04 00:51:43;;;;;;;7.88;4.82;;;26.40;94.60;;;;;;5036118;28;20088;-77
2022/06/04 00:54:11;;;;;;;8.82;5.10;;;26.40;94.60;;;;;;5053100;28;20052;-77
2022/06/04 00:57:02;;;;;;;10.20;5.35;;;26.40;94.50;;;;;;5052865;28;20049;-76
2022/06/04 00:59:33;;;;;;;10.38;4.72;;;26.30;94.50;;;;;;5035847;28;20084;-77
2022/06/04 01:02:26;;;;;;;8.73;4.75;;;26.30;94.60;;;;;;5036458;28;20060;-77
2022/06/04 01:05:09;;;;;;;7.38;5.57;;;26.40;94.60;;;;;;5052570;28;20520;-77
2022/06/04 01:07:49;;;;;;;5.88;4.40;;;26.30;94.60;;;;;;5052560;28;20056;-76
2022/06/04 01:10:26;;;;;;;9.85;4.90;;;26.40;94.60;;;;;;5036048;28;20064;-77
2022/06/04 01:13:03;;;;;;;7.07;5.03;;;26.40;94.60;;;;;;5069747;28;20088;-76
2022/06/04 01:15:50;;;;;;;7.45;4.47;;;26.40;94.60;;;;;;5052523;28;20182;-76
2022/06/04 01:18:25;;;;;;;7.25;4.78;;;26.30;94.60;;;;;;5035539;28;20516;-76
2022/06/04 01:20:59;;;;;;;6.80;4.32;;;26.30;94.80;;;;;;5069524;28;20044;-76
2022/06/04 01:23:49;;;;;;;8.02;4.85;;;26.30;95.00;;;;;;5068550;28;20155;-76
2022/06/04 01:26:39;;;;;;;8.63;4.53;;;26.30;95.10;;;;;;5052180;28;20466;-76
2022/06/04 01:29:16;;;;;;;7.30;4.75;;;26.20;95.20;;;;;;5036134;28;20044;-76
2022/06/04 01:31:58;;;;;;;6.10;4.47;;;26.20;95.20;;;;;;5036231;28;20565;-76
2022/06/04 01:34:39;;;;;;;9.13;4.10;;;26.20;95.10;;;;;;5021363;28;20041;-76
2022/06/04 01:37:14;;;;;;;7.22;4.32;;;26.20;95.00;;;;;;5016374;28;20049;-76
2022/06/04 01:42:36;;;;;;;8.95;4.25;;;26.20;94.90;;;;;;5053342;28;20514;-76
2022/06/04 01:45:08;;;;;;;8.38;4.70;;;26.20;94.90;;;;;;5036443;28;20124;-77
2022/06/04 01:47:37;;;;;;;7.43;4.60;;;26.20;94.80;;;;;;5037661;28;20037;-77
2022/06/04 01:50:10;;;;;;;7.18;3.90;;;26.10;94.80;;;;;;5019926;28;20111;-76
2022/06/04 01:52:40;;;;;;;6.35;4.65;;;26.10;94.80;;;;;;5047128;28;20408;-78
2022/06/04 01:55:10;;;;;;;8.07;4.22;;;26.10;94.80;;;;;;5072676;28;20098;-75
2022/06/04 01:57:53;;;;;;;7.82;4.47;;;26.00;94.70;;;;;;5072609;28;20044;-75
2022/06/04 02:00:26;;;;;;;8.55;5.10;;;26.00;94.70;;;;;;5072089;28;20090;-76
2022/06/04 02:03:03;;;;;;;7.15;4.03;;;26.00;94.60;;;;;;5055792;28;20608;-76
2022/06/04 02:05:41;;;;;;;6.75;4.13;;;26.00;94.60;;;;;;5073522;28;20040;-76
2022/06/04 02:08:12;;;;;;;6.20;3.80;;;26.00;94.60;;;;;;5072373;28;20049;-76
2022/06/04 02:10:47;;;;;;;8.25;4.10;;;26.00;94.60;;;;;;5072158;28;20052;-77
2022/06/04 02:13:15;;;;;;;;;;;26.00;94.50;;;;;;5039751;28;20787;-76
2022/06/04 02:16:03;;;;;;;8.93;3.85;;;25.90;94.60;;;;;;5072528;28;20014;-76
2022/06/04 02:18:30;;;;;;;6.43;3.80;;;25.90;94.60;;;;;;5055800;28;20056;-76
2022/06/04 02:20:58;;;;;;;6.97;4.40;;;25.90;94.60;;;;;;5072492;28;20047;-75
2022/06/04 02:23:25;;;;;;;8.43;3.95;;;25.80;94.60;;;;;;5072850;28;20045;-77
2022/06/04 02:25:53;;;;;;;8.65;4.90;;;25.70;94.70;;;;;;5073315;28;20040;-76
2022/06/04 02:28:21;;;;;;;6.18;4.00;;;25.70;94.90;;;;;;5038591;28;20063;-77
2022/06/04 02:30:48;;;;;;;7.65;4.25;;;25.60;94.90;;;;;;5055189;28;20064;-76
2022/06/04 02:33:44;;;;;;;8.63;3.83;;;25.50;95.00;;;;;;5073022;28;20040;-75
2022/06/04 02:36:48;;;;;;;8.40;4.63;;;25.50;95.10;;;;;;5038826;28;20735;-78
2022/06/04 02:39:25;;;;;;;6.05;4.43;;;25.40;95.20;;;;;;5071463;28;20142;-77
2022/06/04 02:42:11;;;;;;;8.85;4.35;;;25.50;95.20;;;;;;5055047;28;20052;-75
2022/06/04 02:44:51;;;;;;;8.68;4.43;;;25.50;95.20;;;;;;5051753;28;20136;-76
2022/06/04 02:47:27;;;;;;;8.20;4.32;;;25.50;95.10;;;;;;5035662;28;20562;-76
2022/06/04 02:50:12;;;;;;;7.38;3.97;;;25.50;95.00;;;;;;5053962;28;20055;-76
2022/06/04 02:52:42;;;;;;;7.72;4.57;;;25.50;94.90;;;;;;5035008;28;20530;-77
2022/06/04 02:55:18;;;;;;;7.53;4.25;;;25.50;94.90;;;;;;5035328;28;20037;-76
2022/06/04 02:57:49;;;;;;;7.07;5.15;;;25.50;95.10;;;;;;5034740;28;20571;-76
2022/06/04 03:00:20;;;;;;;7.03;4.07;;;25.50;94.80;;;;;;5051509;28;20076;-76
2022/06/04 03:02:49;;;;;;;6.72;4.32;;;25.50;94.80;;;;;;5027378;28;20102;-76
2022/06/04 03:05:26;;;;;;;8.85;4.85;;;25.50;94.70;;;;;;5034823;28;20056;-76
2022/06/04 03:08:00;;;;;;;7.45;4.30;;;25.50;94.80;;;;;;5034735;28;20045;-77
2022/06/04 03:10:33;;;;;;;6.97;4.60;;;25.50;94.80;;;;;;5067629;28;20049;-76
2022/06/04 03:13:01;;;;;;;5.88;3.97;;;25.50;94.70;;;;;;5035019;28;20523;-76
2022/06/04 03:15:28;;;;;;;8.30;4.63;;;25.40;94.70;;;;;;5050978;28;20764;-75
2022/06/04 03:17:56;;;;;;;7.28;4.57;;;25.40;94.70;;;;;;5034311;28;20052;-76
2022/06/04 03:20:26;;;;;;;7.82;5.00;;;25.40;94.70;;;;;;5034815;28;20495;-75
2022/06/04 03:22:54;;;;;;;8.70;5.28;;;25.40;94.70;;;;;;5050365;28;20095;-76
2022/06/04 03:25:22;;;;;;;11.32;4.95;;;25.30;94.80;;;;;;5018125;28;20053;-76
2022/06/04 03:27:53;;;;;;;10.82;4.25;;;25.30;94.90;;;;;;5051775;28;20119;-76
2022/06/04 03:30:21;;;;;;;13.20;5.85;;;25.30;94.90;;;;;;5050389;28;20048;-76
2022/06/04 03:32:48;;;;;;;8.25;5.10;;;25.30;94.90;;;;;;5034653;28;20055;-76
2022/06/04 03:35:17;;;;;;;11.60;6.13;;;25.20;94.90;;;;;;5034505;28;20398;-76
2022/06/04 03:37:44;;;;;;;9.80;5.82;;;25.20;95.00;;;;;;5050068;28;20044;-76
2022/06/04 03:40:12;;;;;;;10.48;5.15;;;25.20;95.00;;;;;;5050924;28;20130;-77
2022/06/04 03:42:40;;;;;;;10.48;5.60;;;25.20;95.10;;;;;;5050535;28;20106;-77
2022/06/04 03:45:10;;;;;;;11.13;5.32;;;25.20;95.20;;;;;;5033595;28;20049;-76
2022/06/04 03:47:38;;;;;;;11.57;6.10;;;25.20;95.20;;;;;;5034249;28;20472;-76
2022/06/04 03:50:09;;;;;;;11.13;6.30;;;25.20;95.20;;;;;;5033867;28;20053;-76
2022/06/04 03:52:37;;;;;;;6.15;4.95;;;25.20;95.20;;;;;;5049535;28;20041;-77
2022/06/04 03:55:06;;;;;;;9.27;4.97;;;25.20;95.30;;;;;;5049716;28;20060;-76
2022/06/04 03:57:45;;;;;;;9.18;4.70;;;25.30;95.30;;;;;;5050205;28;20053;-77
2022/06/04 04:00:15;;;;;;;8.23;4.40;;;25.40;95.30;;;;;;5032730;28;20089;-76
2022/06/04 04:03:07;;;;;;;8.15;5.07;;;25.40;95.20;;;;;;5066428;28;20443;-77
2022/06/04 04:05:37;;;;;;;10.48;5.13;;;25.50;95.10;;;;;;5033748;28;20041;-76
2022/06/04 04:08:07;;;;;;;10.45;5.07;;;25.50;95.10;;;;;;5033366;28;20080;-77
2022/06/04 04:10:38;;;;;;;5.90;4.50;;;25.60;95.00;;;;;;5050397;28;20052;-76
2022/06/04 04:13:06;;;;;;;13.32;4.65;;;25.70;94.90;;;;;;5050317;28;20056;-75
2022/06/04 04:15:34;;;;;;;8.00;5.22;;;25.80;94.70;;;;;;5017479;28;20080;-76
2022/06/04 04:18:02;;;;;;;5.20;4.05;;;25.80;94.60;;;;;;5051116;28;20164;-76
2022/06/04 04:20:31;;;;;;;7.97;4.63;;;25.80;94.50;;;;;;5032877;28;20049;-76
2022/06/04 04:23:00;;;;;;;7.93;5.20;;;25.90;94.40;;;;;;5051371;28;20133;-77
2022/06/04 04:25:29;;;;;;;9.30;4.47;;;26.00;94.30;;;;;;5050171;28;20064;-77
2022/06/04 04:27:58;;;;;;;7.32;4.47;;;26.10;94.10;;;;;;5049637;28;20049;-75
2022/06/04 04:30:29;;;;;;;7.50;4.45;;;26.10;94.10;;;;;;5049081;28;20140;-76
2022/06/04 04:32:57;;;;;;;9.90;4.97;;;26.20;94.20;;;;;;5033509;28;20514;-76
2022/06/04 04:35:29;;;;;;;7.30;4.30;;;26.20;94.10;;;;;;5049581;28;20152;-76
2022/06/04 04:37:57;;;;;;;7.00;4.22;;;26.30;94.10;;;;;;5068594;28;20519;-76
2022/06/04 04:40:30;;;;;;;7.80;4.15;;;26.30;94.10;;;;;;5052759;28;20509;-76
2022/06/04 04:42:59;;;;;;;9.32;4.72;;;26.50;94.10;;;;;;5036935;28;20056;-76
2022/06/04 04:45:27;;;;;;;14.32;5.50;;;26.60;93.90;;;;;;5052973;28;20537;-76
2022/06/04 04:47:56;;;;;;;8.00;5.72;;;26.70;93.80;;;;;;5069552;28;20773;-76
2022/06/04 04:50:29;;;;;;;8.18;4.80;;;26.90;93.70;;;;;;5052318;28;20097;-76
2022/06/04 04:52:57;;;;;;;6.85;4.10;;;27.00;93.50;;;;;;5052596;28;20044;-77
2022/06/04 04:55:29;;;;;;;7.95;5.68;;;27.10;93.30;;;;;;5052740;28;20041;-76
2022/06/04 04:57:57;;;;;;;13.90;5.32;;;27.20;93.30;;;;;;5053239;28;20060;-76
2022/06/04 05:00:25;;;;;;;11.57;5.45;;;27.30;93.10;;;;;;5069292;28;20131;-76
2022/06/04 05:02:53;;;;;;;9.18;5.07;;;27.50;92.90;;;;;;5069352;28;20135;-77
2022/06/04 05:05:20;;;;;;;7.93;5.85;;;27.50;92.90;;;;;;5069546;28;20136;-76
2022/06/04 05:07:48;;;;;;;9.75;5.25;;;27.60;92.80;;;;;;5036171;28;20402;-76
2022/06/04 05:10:18;;;;;;;10.07;5.50;;;27.70;93.10;;;;;;5052445;28;20132;-77
2022/06/04 05:12:46;;;;;;;10.45;6.15;;;27.70;92.80;;;;;;5052220;28;20086;-77
2022/06/04 05:15:14;;;;;;;11.63;5.60;;;27.80;92.50;;;;;;5035769;28;20652;-77
2022/06/04 05:17:41;;;;;;;9.05;5.75;;;27.80;92.40;;;;;;5035649;28;20398;-77
2022/06/04 05:20:09;;;;;;;11.05;6.60;;;27.90;92.20;;;;;;5069419;28;20098;-77
2022/06/04 05:22:37;;;;;;;15.13;6.22;;;28.10;92.20;;;;;;5052485;28;20106;-77
2022/06/04 05:25:06;;;;;;;12.27;6.78;;;28.20;92.00;;;;;;5070269;28;20106;-77
2022/06/04 05:27:33;;;;;;;10.73;7.15;;;28.40;91.80;;;;;;5052352;28;20037;-77
2022/06/04 05:30:01;;;;;;;10.68;5.47;;;28.50;91.70;;;;;;5065250;28;20032;-77
2022/06/04 05:32:29;;;;;;;10.23;5.85;;;28.70;91.60;;;;;;5048733;28;20048;-78
2022/06/04 05:34:56;;;;;;;5.53;4.22;;;28.80;91.40;;;;;;5032626;28;20084;-77
2022/06/04 05:37:24;;;;;;;8.82;3.80;;;29.00;91.20;;;;;;5032342;28;20503;-77
2022/06/04 05:39:51;;;;;;;7.90;3.80;;;29.10;90.80;;;;;;5032276;28;20068;-74
2022/06/04 05:42:19;;;;;;;5.70;4.20;;;29.30;90.60;;;;;;5015620;28;20502;-74
2022/06/04 05:44:47;;;;;;;8.55;5.32;;;29.40;90.50;;;;;;5031696;28;20041;-76
2022/06/04 05:47:15;;;;;;;10.50;4.22;;;29.60;90.50;;;;;;5015983;28;20056;-77
2022/06/04 05:49:44;;;;;;;6.70;3.70;;;29.70;90.60;;;;;;5032399;28;20054;-77
2022/06/04 05:52:13;;;;;;;11.52;4.28;;;29.90;90.30;;;;;;5016090;28;20059;-76
2022/06/04 05:54:40;;;;;;;10.18;4.88;;;29.90;90.30;;;;;;5031986;28;20391;-77
2022/06/04 05:57:09;;;;;;;6.95;5.30;;;30.10;90.20;;;;;;5032271;28;20056;-76
2022/06/04 05:59:36;;;;;;;6.72;4.47;;;30.20;90.20;;;;;;5032271;28;20053;-77
2022/06/04 06:02:04;;;;;;;6.85;4.57;;;30.30;90.20;;;;;;5016117;28;20114;-77
2022/06/04 06:04:32;;;;;;;6.68;5.05;;;30.40;90.20;;;;;;5015703;28;20823;-78
2022/06/04 06:07:00;;;;;;;7.30;4.28;;;30.50;90.00;;;;;;5031875;28;20045;-77
2022/06/04 06:09:28;;;;;;;5.50;4.38;;;30.60;90.00;;;;;;5048801;28;20061;-77
2022/06/04 06:11:56;;;;;;;10.30;4.57;;;30.70;89.50;;;;;;5015951;28;20049;-77
2022/06/04 06:14:24;;;;;;;8.45;4.50;;;30.80;89.30;;;;;;5048616;28;20091;-77
2022/06/04 06:16:52;;;;;;;8.50;5.05;;;30.90;88.90;;;;;;5050100;28;20064;-77
2022/06/04 06:19:22;;;;;;;9.80;5.07;;;31.00;88.70;;;;;;5032364;28;20064;-77
2022/06/04 06:21:50;;;;;;;8.02;4.68;;;31.10;88.60;;;;;;5032289;28;20044;-78
2022/06/04 06:24:20;;;;;;;11.77;5.47;;;31.20;88.90;;;;;;5034151;28;20870;-77
2022/06/04 06:26:54;;;;;;;11.23;5.63;;;31.30;88.60;;;;;;5053390;28;20044;-78
2022/06/04 06:29:25;;;;;;;10.98;5.10;;;31.50;88.20;;;;;;5052495;28;20384;-78
2022/06/04 06:31:54;;;;;;;10.88;5.35;;;31.60;88.30;;;;;;5035807;28;20110;-79
2022/06/04 06:34:22;;;;;;;13.38;5.28;;;31.70;87.50;;;;;;5035393;28;20051;-78
2022/06/04 06:36:50;;;;;;;18.25;5.90;;;31.70;87.20;;;;;;5051807;28;20499;-78
2022/06/04 06:39:18;;;;;;;8.20;4.82;;;31.90;87.20;;;;;;5018802;28;20072;-78
2022/06/04 06:41:46;;;;;;;7.65;4.25;;;32.00;87.60;;;;;;5053320;28;20037;-77
2022/06/04 06:44:15;;;;;;;7.90;5.03;;;32.10;87.40;;;;;;5035326;28;20044;-77
2022/06/04 06:46:48;;;;;;;7.78;5.15;;;32.20;86.70;;;;;;5052865;28;20479;-77
2022/06/04 06:49:20;;;;;;;7.43;4.78;;;32.20;86.30;;;;;;5051261;28;20049;-77
2022/06/04 06:51:54;;;;;;;7.13;5.18;;;32.20;86.00;;;;;;5035580;28;20064;-78
2022/06/04 06:54:24;;;;;;;11.88;5.30;;;32.30;85.90;;;;;;5034834;28;20443;-78
2022/06/04 06:56:53;;;;;;;10.45;4.85;;;32.40;86.00;;;;;;5052843;28;20063;-77
2022/06/04 06:59:21;;;;;;;7.65;4.93;;;32.40;85.70;;;;;;5051427;28;20086;-78
2022/06/04 07:01:50;;;;;;;11.40;5.90;;;32.50;86.10;;;;;;5035314;28;20044;-78
2022/06/04 07:04:21;;;;;;;9.77;5.45;;;32.50;85.70;;;;;;5051278;28;20049;-79
2022/06/04 07:06:51;;;;;;;9.45;5.05;;;32.50;85.70;;;;;;5038678;28;20433;-78
2022/06/04 07:09:25;;;;;;;10.13;4.90;;;32.60;85.70;;;;;;5054743;28;20048;-78
2022/06/04 07:11:54;;;;;;;16.02;5.88;;;32.70;85.80;;;;;;5071363;28;20072;-78
2022/06/04 07:14:23;;;;;;;14.98;5.45;;;32.80;85.40;;;;;;5070925;28;20048;-78
2022/06/04 07:16:52;;;;;;;14.20;6.95;;;32.80;85.00;;;;;;5054162;28;20060;-78
2022/06/04 07:19:21;;;;;;;69.57;17.00;;;32.90;84.80;;;;;;5072624;28;20045;-73
2022/06/04 07:21:50;;;;;;;36.10;9.63;;;33.00;85.10;;;;;;5054412;28;20051;-72
2022/06/04 07:24:18;;;;;;;10.75;5.53;;;33.10;84.60;;;;;;5071365;28;20419;-72
2022/06/04 07:26:47;;;;;;;13.18;6.07;;;33.10;84.10;;;;;;5070898;28;20047;-74
2022/06/04 07:29:15;;;;;;;8.18;5.05;;;33.10;83.70;;;;;;5072214;28;20444;-73
2022/06/04 07:31:43;;;;;;;6.80;5.53;;;33.30;83.70;;;;;;5054644;28;20056;-73
2022/06/04 07:34:11;;;;;;;7.78;4.72;;;33.40;83.50;;;;;;5070695;28;20048;-76
2022/06/04 07:36:44;;;;;;;10.07;5.45;;;33.50;83.10;;;;;;5054132;28;20047;-74
2022/06/04 07:39:14;;;;;;;7.18;5.13;;;33.60;82.90;;;;;;5053699;28;20044;-74
2022/06/04 07:41:44;;;;;;;8.98;5.03;;;33.70;83.00;;;;;;5053989;28;20036;-73
2022/06/04 07:44:16;;;;;;;14.98;4.93;;;33.70;83.00;;;;;;5070345;28;20056;-72
2022/06/04 07:46:45;;;;;;;7.78;4.47;;;33.80;82.30;;;;;;5054404;28;20054;-74
2022/06/04 07:49:14;;;;;;;7.97;5.80;;;33.70;82.00;;;;;;5071916;28;20052;-72
2022/06/04 07:51:43;;;;;;;7.15;4.60;;;33.80;82.10;;;;;;5037121;28;20063;-73
2022/06/04 07:54:12;;;;;;;7.13;4.82;;;33.80;81.80;;;;;;5070375;28;20044;-73
2022/06/04 07:56:40;;;;;;;7.70;4.75;;;33.70;82.20;;;;;;5053968;28;20126;-73
2022/06/04 07:59:10;;;;;;;12.63;5.25;;;33.70;81.80;;;;;;5068704;28;20037;-73
2022/06/04 08:01:38;;;;;;;7.57;4.43;;;33.80;82.10;;;;;;5070123;28;20048;-73
2022/06/04 08:04:06;;;;;;;6.43;4.57;;;33.90;81.70;;;;;;5037664;28;20049;-73
2022/06/04 08:06:33;;;;;;;6.63;4.68;;;34.00;82.10;;;;;;5069418;28;20816;-73
2022/06/04 08:09:01;;;;;;;6.82;5.00;;;34.10;81.50;;;;;;5053417;28;20646;-73
2022/06/04 08:11:32;;;;;;;12.48;5.68;;;34.10;81.00;;;;;;5069815;28;20143;-73
2022/06/04 08:14:08;;;;;;;10.43;4.95;;;34.10;80.70;;;;;;5069252;28;20045;-74
2022/06/04 08:16:38;;;;;;;8.88;4.57;;;34.20;80.80;;;;;;5053036;28;20107;-73
2022/06/04 08:19:06;;;;;;;6.60;4.70;;;34.30;81.00;;;;;;5069451;28;20563;-74
2022/06/04 08:21:36;;;;;;;8.63;5.10;;;34.40;81.20;;;;;;5070828;28;20040;-72
2022/06/04 08:24:05;;;;;;;5.72;4.15;;;34.50;80.30;;;;;;5069841;28;20056;-73
2022/06/04 08:26:32;;;;;;;7.70;4.75;;;34.60;79.50;;;;;;5070640;28;20055;-75
2022/06/04 08:29:00;;;;;;;6.30;5.18;;;34.70;79.40;;;;;;5069698;28;20052;-73
2022/06/04 08:31:29;;;;;;;10.48;5.50;;;34.80;79.50;;;;;;5069012;28;20048;-73
2022/06/04 08:33:56;;;;;;;8.00;4.90;;;34.90;79.50;;;;;;5052223;28;20146;-74
2022/06/04 08:36:24;;;;;;;9.52;5.40;;;34.90;79.20;;;;;;5069237;28;20380;-74
2022/06/04 08:38:52;;;;;;;7.47;5.00;;;35.00;78.80;;;;;;5070327;28;20087;-74
2022/06/04 08:41:39;;;;;;;16.50;5.65;;;35.10;78.30;;;;;;5069079;28;20084;-73
2022/06/04 08:44:20;;;;;;;9.18;5.28;;;35.10;77.80;;;;;;5052946;28;20540;-72
2022/06/04 08:46:53;;;;;;;9.45;5.00;;;35.00;77.70;;;;;;5070007;28;20040;-72
2022/06/04 08:49:37;;;;;;;6.00;4.68;;;35.00;77.80;;;;;;5069825;28;20517;-73
2022/06/04 08:52:12;;;;;;;8.05;5.18;;;34.90;78.40;;;;;;5069495;28;20155;-74
2022/06/04 08:57:43;;;;;;;9.43;4.38;;;34.60;78.20;;;;;;5076956;28;20048;-73
2022/06/04 09:00:30;;;;;;;7.25;5.30;;;34.50;78.40;;;;;;5066499;28;20067;-74
2022/06/04 09:03:15;;;;;;;6.30;4.85;;;34.40;78.60;;;;;;5069192;28;20052;-72
2022/06/04 09:06:30;;;;;;;7.15;4.82;;;34.40;79.00;;;;;;5068568;28;20041;-74
2022/06/04 09:09:19;;;;;;;8.70;5.40;;;34.60;78.80;;;;;;5069201;28;20502;-73
2022/06/04 09:11:58;;;;;;;8.48;5.00;;;34.80;78.10;;;;;;5069173;28;20056;-73
2022/06/04 09:14:41;;;;;;;5.82;4.65;;;34.90;77.40;;;;;;5068954;28;20878;-73
2022/06/04 09:17:39;;;;;;;8.15;5.05;;;35.00;77.70;;;;;;5068480;28;20056;-74
2022/06/04 09:20:34;;;;;;;9.98;5.53;;;35.00;77.30;;;;;;5034973;28;20048;-73
2022/06/04 09:23:05;;;;;;;7.28;4.90;;;35.00;77.00;;;;;;5068267;28;20041;-72
2022/06/04 09:25:52;;;;;;;9.18;4.82;;;34.80;77.00;;;;;;5068483;28;20098;-72
2022/06/04 09:28:53;;;;;;;9.93;4.90;;;34.70;76.90;;;;;;5052045;28;20479;-72
2022/06/04 09:31:24;;;;;;;7.25;5.15;;;34.80;77.20;;;;;;5068428;28;20040;-72
2022/06/04 09:34:02;;;;;;;9.73;4.95;;;35.00;76.40;;;;;;5068881;28;20094;-73
2022/06/04 09:36:37;;;;;;;8.10;4.97;;;35.00;76.30;;;;;;5069357;28;20072;-72
2022/06/04 09:39:19;;;;;;;8.98;4.70;;;35.10;76.00;;;;;;5052189;28;20612;-73
2022/06/04 09:41:57;;;;;;;7.72;5.50;;;35.20;75.80;;;;;;5068979;28;20049;-72
2022/06/04 09:44:27;;;;;;;11.63;5.78;;;35.40;75.90;;;;;;5052075;28;20183;-72
2022/06/04 09:47:09;;;;;;;10.43;5.10;;;35.40;76.00;;;;;;5052153;28;20053;-72
2022/06/04 09:49:41;;;;;;;6.35;5.22;;;35.40;75.50;;;;;;5051772;28;20048;-74
2022/06/04 09:52:23;;;;;;;8.40;5.20;;;35.50;75.60;;;;;;5084174;28;20502;-73
2022/06/04 09:55:00;;;;;;;8.48;4.57;;;35.50;74.80;;;;;;5052230;28;20387;-73
2022/06/04 09:57:36;;;;;;;8.10;4.85;;;35.60;74.80;;;;;;5052029;28;20045;-73
2022/06/04 10:00:21;;;;;;;7.97;5.10;;;35.60;72.70;;;;;;5072192;28;20068;-72
2022/06/04 10:02:58;;;;;;;6.23;4.57;;;35.50;72.80;;;;;;5072165;28;20052;-73
2022/06/04 10:05:30;;;;;;;6.85;5.15;;;35.60;73.50;;;;;;5055876;28;20059;-73
2022/06/04 10:07:57;;;;;;;7.90;4.88;;;35.70;73.20;;;;;;5055433;28;20054;-72
2022/06/04 10:10:41;;;;;;;8.05;4.65;;;35.70;72.60;;;;;;5072140;28;20512;-74
2022/06/04 10:13:43;;;;;;;5.95;4.00;;;35.70;71.00;;;;;;5072239;28;20147;-75
2022/06/04 10:16:25;;;;;;;5.78;4.93;;;35.70;69.80;;;;;;5072632;28;20064;-73
2022/06/04 10:19:02;;;;;;;8.98;5.10;;;35.70;68.90;;;;;;5071420;28;20045;-74
2022/06/04 10:21:30;;;;;;;7.32;4.63;;;35.80;71.00;;;;;;5056121;28;20398;-73
2022/06/04 10:23:59;;;;;;;7.80;4.97;;;35.70;71.60;;;;;;5073278;28;20421;-75
2022/06/04 10:26:31;;;;;;;6.22;4.63;;;35.60;71.20;;;;;;5054936;28;20070;-73
2022/06/04 10:29:37;;;;;;;7.35;4.90;;;35.60;71.20;;;;;;5055306;28;20051;-73
2022/06/04 10:32:29;;;;;;;7.35;4.35;;;35.70;72.00;;;;;;5049072;28;20052;-74
2022/06/04 10:35:21;;;;;;;7.32;5.50;;;35.70;72.80;;;;;;5073105;28;20106;-74
2022/06/04 10:38:19;;;;;;;7.85;5.22;;;35.70;72.90;;;;;;5055174;28;20556;-73
2022/06/04 10:40:50;;;;;;;5.60;5.03;;;35.60;72.70;;;;;;5053094;28;20099;-73
2022/06/04 10:43:55;;;;;;;7.43;5.10;;;35.50;73.50;;;;;;5072010;28;20044;-74
2022/06/04 10:46:52;;;;;;;6.28;4.80;;;35.40;73.30;;;;;;5072635;28;20052;-73
2022/06/04 10:49:35;;;;;;;8.25;4.82;;;35.40;73.70;;;;;;5054608;28;20044;-75
2022/06/04 10:52:24;;;;;;;6.00;4.85;;;35.50;72.60;;;;;;5070416;28;20048;-74
2022/06/04 10:55:18;;;;;;;5.68;4.25;;;35.70;71.60;;;;;;5070483;28;20417;-75
2022/06/04 10:58:03;;;;;;;7.60;4.50;;;35.80;70.90;;;;;;5070866;28;20049;-76
2022/06/04 11:00:41;;;;;;;;;;;35.90;70.40;;;;;;5070817;28;20094;-75
2022/06/04 11:03:20;;;;;;;9.32;6.00;;;35.90;69.90;;;;;;5054118;28;19947;-75
2022/06/04 11:05:57;;;;;;;16.63;14.27;;;35.90;70.90;;;;;;5071549;28;20036;-74
2022/06/04 11:08:36;;;;;;;9.85;7.55;;;35.90;71.60;;;;;;5071925;28;20135;-73
2022/06/04 11:11:53;;;;;;;8.82;6.15;;;35.90;72.10;;;;;;5054095;28;20044;-73
2022/06/04 11:14:24;;;;;;;11.63;9.18;;;35.90;71.40;;;;;;5065986;28;20056;-75
2022/06/04 11:17:00;;;;;;;10.75;8.00;;;35.80;70.90;;;;;;5071302;28;20463;-74
2022/06/04 11:19:39;;;;;;;9.45;8.45;;;35.70;70.70;;;;;;5070561;28;20048;-74
2022/06/04 11:22:23;;;;;;;10.00;8.45;;;35.60;71.00;;;;;;5069712;28;20056;-74
2022/06/04 11:25:24;;;;;;;10.30;6.82;;;35.50;71.00;;;;;;5069580;28;20049;-77
2022/06/04 11:27:56;;;;;;;8.80;6.88;;;35.50;70.60;;;;;;5053635;28;20095;-75
2022/06/04 11:30:54;;;;;;;9.30;6.35;;;35.40;70.20;;;;;;5071268;28;20406;-74
2022/06/04 11:33:52;;;;;;;9.93;6.30;;;35.40;71.00;;;;;;5053278;28;20044;-75
2022/06/04 11:36:34;;;;;;;9.82;7.78;;;35.20;70.60;;;;;;5069846;28;20036;-74
2022/06/04 11:39:17;;;;;;;8.48;7.00;;;35.10;70.80;;;;;;5069209;28;20391;-74
2022/06/04 11:42:00;;;;;;;18.67;13.00;;;34.80;71.20;;;;;;5070997;28;20054;-74
2022/06/04 11:44:56;;;;;;;12.55;10.68;;;34.50;72.10;;;;;;5053046;28;20087;-76
2022/06/04 11:47:28;;;;;;;18.00;12.27;;;34.30;72.60;;;;;;5053187;28;20402;-74
2022/06/04 11:50:27;;;;;;;17.23;13.43;;;34.20;73.40;;;;;;5035780;28;20110;-74
2022/06/04 11:53:32;;;;;;;21.38;16.05;;;34.10;73.20;;;;;;5052988;28;20075;-74
2022/06/04 11:56:07;;;;;;;35.58;26.25;;;33.90;72.70;;;;;;5052647;28;20774;-74
2022/06/04 11:59:14;;;;;;;35.00;23.95;;;33.90;73.20;;;;;;5070399;28;20449;-74
2022/06/04 12:01:56;;;;;;;24.83;18.40;;;33.90;73.10;;;;;;5069254;28;20045;-74
2022/06/04 12:04:42;;;;;;;89.43;62.78;;;33.90;73.70;;;;;;5053151;28;20044;-75
2022/06/04 12:07:39;;;;;;;19.85;13.82;;;33.90;73.90;;;;;;5071129;28;20513;-73
2022/06/04 12:10:35;;;;;;;30.67;22.85;;;33.80;73.90;;;;;;5053055;28;20107;-74
2022/06/04 12:13:15;;;;;;;;;;;33.70;73.70;;;;;;5070232;28;20120;-75
2022/06/04 12:15:50;;;;;;;25.83;11.48;;;33.40;74.20;;;;;;5069333;28;19921;-74
2022/06/04 12:18:18;;;;;;;96.93;61.33;;;33.40;75.20;;;;;;5069454;28;20160;-74
2022/06/04 12:26:39;;;;;;;22.35;15.02;;;33.70;75.00;;;;;;5069390;28;20049;-74
2022/06/04 12:29:29;;;;;;;11.82;9.90;;;33.70;73.90;;;;;;5069443;28;20529;-74
2022/06/04 12:32:19;;;;;;;9.18;6.45;;;33.80;73.90;;;;;;5069562;28;20048;-74
2022/06/04 12:34:51;;;;;;;9.13;6.00;;;33.90;74.00;;;;;;5067355;28;20502;-73
2022/06/04 12:37:29;;;;;;;7.22;5.15;;;33.90;74.20;;;;;;5069410;28;20048;-76
2022/06/04 12:40:14;;;;;;;8.18;5.63;;;33.90;74.30;;;;;;5069624;28;20143;-73
2022/06/04 12:42:45;;;;;;;10.33;5.37;;;33.80;74.60;;;;;;5069199;28;20044;-76
2022/06/04 12:45:50;;;;;;;8.23;5.50;;;33.80;75.80;;;;;;5069171;28;20382;-73
2022/06/04 12:48:22;;;;;;;12.60;5.60;;;33.80;73.40;;;;;;5018074;28;20044;-73
2022/06/04 12:50:58;;;;;;;7.97;5.50;;;33.80;73.80;;;;;;5070427;28;20061;-73
2022/06/04 12:53:28;;;;;;;6.32;5.20;;;33.90;73.70;;;;;;5051958;28;20101;-74
2022/06/04 12:55:59;;;;;;;6.22;5.47;;;33.90;73.20;;;;;;5052168;28;20048;-75
2022/06/04 12:58:48;;;;;;;8.27;5.40;;;33.80;73.10;;;;;;5069076;28;20045;-74
2022/06/04 13:01:18;;;;;;;8.13;5.28;;;33.80;74.10;;;;;;5045705;28;20091;-74
2022/06/04 13:04:06;;;;;;;7.00;5.13;;;33.70;74.70;;;;;;5033919;28;20131;-73
2022/06/04 13:07:22;;;;;;;7.18;5.50;;;33.50;75.00;;;;;;5047522;28;20044;-73
2022/06/04 13:10:05;;;;;;;9.27;5.72;;;33.40;75.70;;;;;;5059760;28;20048;-74
2022/06/04 13:12:36;;;;;;;6.65;5.75;;;33.20;75.20;;;;;;5034995;28;20048;-73
2022/06/04 13:15:28;;;;;;;6.72;5.75;;;33.20;75.00;;;;;;5028654;28;20060;-74
2022/06/04 13:17:56;;;;;;;7.75;5.25;;;33.30;75.00;;;;;;5069578;28;20106;-73
2022/06/04 13:20:33;;;;;;;9.90;6.00;;;33.30;74.80;;;;;;5045643;28;20051;-73
2022/06/04 13:23:36;;;;;;;9.38;5.32;;;33.30;74.40;;;;;;5048787;28;20045;-73
2022/06/04 13:26:22;;;;;;;6.85;4.88;;;33.40;73.80;;;;;;5035661;28;20395;-73
2022/06/04 13:28:49;;;;;;;;;;;33.50;73.50;;;;;;5066633;28;20032;-75
2022/06/04 13:31:20;;;;;;;6.63;5.00;;;33.60;72.90;;;;;;5059088;28;19925;-73
2022/06/04 13:33:50;;;;;;;10.38;5.88;;;33.60;71.10;;;;;;5070745;28;20037;-73
2022/06/04 13:36:23;;;;;;;10.32;5.50;;;33.60;71.40;;;;;;5068230;28;20040;-74
2022/06/04 13:38:57;;;;;;;6.05;5.40;;;33.60;72.00;;;;;;5054054;28;20403;-73
2022/06/04 13:44:27;;;;;;;7.85;5.72;;;33.60;71.90;;;;;;5071199;28;20048;-74
2022/06/04 13:47:20;;;;;;;7.75;5.90;;;33.50;70.60;;;;;;5064144;28;20462;-74